PWSweather.com
Personal Weather Stations
Station Observations
DAVIS2016
WorthingGB

WorthingGB

Lat: 50.8130266, Lon: -0.3832443000000012

Elevation: 34.8

Station Type: davis vantage vue 6250

Latest ConditionsUpdated 10:00:00 PM GMT Saturday, Feb 23, 2019
Currently Today's Max Today's Min Today's Average
Temperature 46.1°F7.8°C 50.8°F10.4°C 45.8°F7.7°C 48.3°F9.1°C
Dew Point 41.5°F5.3°C 47.3°F8.5°C 41.5°F5.3°C 45.3°F7.4°C
Winds 2.0 mph NE3.2 kmh NE 6.0 mph -9.7 kmh - - 2.8 mph 4.5 kmh
Wind Gusts 3.0 mph4.8 kmh 13.0 mph20.9 kmh - -
Humidity 84% 96% 81% 89%
Pressure 30.51 in1033.2 mb 30.53 in1033.9 mb 30.48 in1032.2 mb -
Precipitation - 0.01 in0.3 mm - -
Hour Temp Dew Point Humidity Winds Wind Gusts Pressure Precip Precip Rate Daily Precip Total
10:00 PM 46.1°F7.8°C 41.5°F5.3°C 84% 2.0 mph NE3.2 kmh NE 3.0 mph4.8 kmh 30.51 in1033.2 mb 0.00 in0.0 mm 0.00 in0.0 mm 0.01 in0.3 mm
09:45 PM 46.3°F7.9°C 41.7°F5.4°C 84% 1.0 mph NNE1.6 kmh NNE 3.0 mph4.8 kmh 30.51 in1033.2 mb 0.00 in0.0 mm 0.00 in0.0 mm 0.01 in0.3 mm
09:30 PM 47.0°F8.3°C 42.1°F5.6°C 83% 2.0 mph NE3.2 kmh NE 4.0 mph6.4 kmh 30.51 in1033.2 mb 0.00 in0.0 mm 0.00 in0.0 mm 0.01 in0.3 mm
09:15 PM 46.1°F7.8°C 41.8°F5.4°C 85% Calm Calm 2.0 mph3.2 kmh 30.51 in1033.2 mb 0.00 in0.0 mm 0.00 in0.0 mm 0.01 in0.3 mm
09:00 PM 45.8°F7.7°C 41.5°F5.3°C 85% Calm Calm -- 30.51 in1033.2 mb 0.00 in0.0 mm 0.00 in0.0 mm 0.01 in0.3 mm
08:45 PM 45.8°F7.7°C 41.5°F5.3°C 85% Calm Calm -- 30.50 in1032.8 mb 0.00 in0.0 mm 0.00 in0.0 mm 0.01 in0.3 mm
08:30 PM 45.8°F7.7°C 41.5°F5.3°C 85% Calm Calm 1.0 mph1.6 kmh 30.51 in1033.2 mb 0.00 in0.0 mm 0.00 in0.0 mm 0.01 in0.3 mm
08:15 PM 46.2°F7.9°C 41.6°F5.3°C 84% Calm Calm 1.0 mph1.6 kmh 30.51 in1033.2 mb 0.00 in0.0 mm 0.00 in0.0 mm 0.01 in0.3 mm
08:00 PM 46.7°F8.2°C 42.1°F5.6°C 84% Calm Calm 1.0 mph1.6 kmh 30.50 in1032.8 mb 0.00 in0.0 mm 0.00 in0.0 mm 0.01 in0.3 mm
07:45 PM 46.8°F8.2°C 42.2°F5.7°C 84% 1.0 mph NE1.6 kmh NE 3.0 mph4.8 kmh 30.51 in1033.2 mb 0.00 in0.0 mm 0.00 in0.0 mm 0.01 in0.3 mm
07:30 PM 46.8°F8.2°C 42.2°F5.7°C 84% Calm Calm 2.0 mph3.2 kmh 30.50 in1032.8 mb 0.00 in0.0 mm 0.00 in0.0 mm 0.01 in0.3 mm
07:15 PM 47.5°F8.6°C 42.6°F5.9°C 83% 1.0 mph NNE1.6 kmh NNE 3.0 mph4.8 kmh 30.50 in1032.8 mb 0.00 in0.0 mm 0.00 in0.0 mm 0.01 in0.3 mm
07:00 PM 47.7°F8.7°C 42.8°F6.0°C 83% 1.0 mph NE1.6 kmh NE 3.0 mph4.8 kmh 30.49 in1032.5 mb 0.00 in0.0 mm 0.00 in0.0 mm 0.01 in0.3 mm
06:45 PM 47.8°F8.8°C 42.9°F6.1°C 83% 1.0 mph NNE1.6 kmh NNE 3.0 mph4.8 kmh 30.49 in1032.5 mb 0.00 in0.0 mm 0.00 in0.0 mm 0.01 in0.3 mm
06:30 PM 48.3°F9.1°C 43.1°F6.2°C 82% Calm Calm 3.0 mph4.8 kmh 30.50 in1032.8 mb 0.00 in0.0 mm 0.00 in0.0 mm 0.01 in0.3 mm
06:15 PM 48.7°F9.3°C 43.1°F6.2°C 81% 2.0 mph ENE3.2 kmh ENE 4.0 mph6.4 kmh 30.49 in1032.5 mb 0.00 in0.0 mm 0.00 in0.0 mm 0.01 in0.3 mm
06:00 PM 48.8°F9.3°C 43.5°F6.4°C 82% 1.0 mph E1.6 kmh E 4.0 mph6.4 kmh 30.50 in1032.8 mb 0.00 in0.0 mm 0.00 in0.0 mm 0.01 in0.3 mm
05:45 PM 48.4°F9.1°C 43.8°F6.6°C 84% 1.0 mph ENE1.6 kmh ENE 3.0 mph4.8 kmh 30.50 in1032.8 mb 0.00 in0.0 mm 0.00 in0.0 mm 0.01 in0.3 mm
05:30 PM 48.6°F9.2°C 44.0°F6.7°C 84% 1.0 mph E1.6 kmh E 4.0 mph6.4 kmh 30.50 in1032.8 mb 0.00 in0.0 mm 0.00 in0.0 mm 0.01 in0.3 mm
05:15 PM 48.9°F9.4°C 44.3°F6.8°C 84% 3.0 mph ESE4.8 kmh ESE 7.0 mph11.3 kmh 30.49 in1032.5 mb 0.00 in0.0 mm 0.00 in0.0 mm 0.01 in0.3 mm
05:00 PM 49.4°F9.7°C 44.5°F6.9°C 83% 2.0 mph ESE3.2 kmh ESE 7.0 mph11.3 kmh 30.49 in1032.5 mb 0.00 in0.0 mm 0.00 in0.0 mm 0.01 in0.3 mm
04:45 PM 49.9°F9.9°C 44.6°F7.0°C 82% 2.0 mph ESE3.2 kmh ESE 6.0 mph9.7 kmh 30.48 in1032.2 mb 0.00 in0.0 mm 0.00 in0.0 mm 0.01 in0.3 mm
04:30 PM 49.8°F9.9°C 44.8°F7.1°C 83% 3.0 mph E4.8 kmh E 7.0 mph11.3 kmh 30.49 in1032.5 mb 0.00 in0.0 mm 0.00 in0.0 mm 0.01 in0.3 mm
04:15 PM 49.7°F9.8°C 44.7°F7.1°C 83% 4.0 mph E6.4 kmh E 9.0 mph14.5 kmh 30.48 in1032.2 mb 0.00 in0.0 mm 0.00 in0.0 mm 0.01 in0.3 mm
04:00 PM 50.1°F10.1°C 45.5°F7.5°C 84% 3.0 mph E4.8 kmh E 7.0 mph11.3 kmh 30.48 in1032.2 mb 0.00 in0.0 mm 0.00 in0.0 mm 0.01 in0.3 mm
03:45 PM 50.2°F10.1°C 45.6°F7.6°C 84% 3.0 mph E4.8 kmh E 11.0 mph17.7 kmh 30.48 in1032.2 mb 0.00 in0.0 mm 0.00 in0.0 mm 0.01 in0.3 mm
03:30 PM 50.0°F10.0°C 45.7°F7.6°C 85% 4.0 mph E6.4 kmh E 10.0 mph16.1 kmh 30.48 in1032.2 mb 0.00 in0.0 mm 0.00 in0.0 mm 0.01 in0.3 mm
03:15 PM 50.1°F10.1°C 45.8°F7.7°C 85% 3.0 mph E4.8 kmh E 8.0 mph12.9 kmh 30.49 in1032.5 mb 0.00 in0.0 mm 0.00 in0.0 mm 0.01 in0.3 mm
03:00 PM 50.0°F10.0°C 46.0°F7.8°C 86% 5.0 mph ESE8.0 kmh ESE 11.0 mph17.7 kmh 30.49 in1032.5 mb 0.00 in0.0 mm 0.00 in0.0 mm 0.01 in0.3 mm
02:45 PM 50.0°F10.0°C 45.4°F7.4°C 84% 6.0 mph E9.7 kmh E 11.0 mph17.7 kmh 30.49 in1032.5 mb 0.00 in0.0 mm 0.00 in0.0 mm 0.01 in0.3 mm
02:30 PM 50.8°F10.4°C 45.5°F7.5°C 82% 4.0 mph E6.4 kmh E 11.0 mph17.7 kmh 30.49 in1032.5 mb 0.00 in0.0 mm 0.00 in0.0 mm 0.01 in0.3 mm
02:15 PM 50.8°F10.4°C 46.1°F7.8°C 84% 4.0 mph ESE6.4 kmh ESE 10.0 mph16.1 kmh 30.49 in1032.5 mb 0.00 in0.0 mm 0.00 in0.0 mm 0.01 in0.3 mm
02:00 PM 50.3°F10.2°C 45.6°F7.6°C 84% 5.0 mph E8.0 kmh E 10.0 mph16.1 kmh 30.49 in1032.5 mb 0.00 in0.0 mm 0.00 in0.0 mm 0.01 in0.3 mm
01:45 PM 50.3°F10.2°C 46.0°F7.8°C 85% 5.0 mph E8.0 kmh E 12.0 mph19.3 kmh 30.50 in1032.8 mb 0.00 in0.0 mm 0.00 in0.0 mm 0.01 in0.3 mm
01:30 PM 50.3°F10.2°C 46.0°F7.8°C 85% 5.0 mph E8.0 kmh E 10.0 mph16.1 kmh 30.50 in1032.8 mb 0.00 in0.0 mm 0.00 in0.0 mm 0.01 in0.3 mm
01:15 PM 50.1°F10.1°C 46.1°F7.8°C 86% 5.0 mph ESE8.0 kmh ESE 12.0 mph19.3 kmh 30.50 in1032.8 mb 0.00 in0.0 mm 0.00 in0.0 mm 0.01 in0.3 mm
01:00 PM 50.5°F10.3°C 46.8°F8.2°C 87% 4.0 mph ESE6.4 kmh ESE 9.0 mph14.5 kmh 30.50 in1032.8 mb 0.00 in0.0 mm 0.00 in0.0 mm 0.01 in0.3 mm
12:45 PM 50.3°F10.2°C 46.6°F8.1°C 87% 4.0 mph E6.4 kmh E 9.0 mph14.5 kmh 30.51 in1033.2 mb 0.00 in0.0 mm 0.00 in0.0 mm 0.01 in0.3 mm
12:30 PM 50.5°F10.3°C 46.8°F8.2°C 87% 4.0 mph E6.4 kmh E 10.0 mph16.1 kmh 30.51 in1033.2 mb 0.00 in0.0 mm 0.00 in0.0 mm 0.01 in0.3 mm
12:15 PM 50.6°F10.3°C 46.9°F8.3°C 87% 3.0 mph E4.8 kmh E 9.0 mph14.5 kmh 30.51 in1033.2 mb 0.00 in0.0 mm 0.00 in0.0 mm 0.01 in0.3 mm
12:00 PM 50.6°F10.3°C 47.2°F8.4°C 88% 3.0 mph ESE4.8 kmh ESE 7.0 mph11.3 kmh 30.52 in1033.5 mb 0.00 in0.0 mm 0.00 in0.0 mm 0.01 in0.3 mm
11:45 AM 49.6°F9.8°C 46.5°F8.1°C 89% 5.0 mph E8.0 kmh E 10.0 mph16.1 kmh 30.52 in1033.5 mb 0.00 in0.0 mm 0.00 in0.0 mm 0.01 in0.3 mm
11:30 AM 50.1°F10.1°C 46.4°F8.0°C 87% 4.0 mph ESE6.4 kmh ESE 11.0 mph17.7 kmh 30.52 in1033.5 mb 0.00 in0.0 mm 0.00 in0.0 mm 0.01 in0.3 mm
11:15 AM 50.1°F10.1°C 47.0°F8.3°C 89% 4.0 mph E6.4 kmh E 9.0 mph14.5 kmh 30.52 in1033.5 mb 0.00 in0.0 mm 0.00 in0.0 mm 0.01 in0.3 mm
11:00 AM 50.1°F10.1°C 47.3°F8.5°C 90% 3.0 mph ESE4.8 kmh ESE 7.0 mph11.3 kmh 30.52 in1033.5 mb 0.00 in0.0 mm 0.00 in0.0 mm 0.01 in0.3 mm
10:45 AM 49.5°F9.7°C 46.4°F8.0°C 89% 4.0 mph E6.4 kmh E 10.0 mph16.1 kmh 30.52 in1033.5 mb 0.00 in0.0 mm 0.00 in0.0 mm 0.01 in0.3 mm
10:30 AM 49.6°F9.8°C 47.1°F8.4°C 91% 3.0 mph E4.8 kmh E 7.0 mph11.3 kmh 30.52 in1033.5 mb 0.00 in0.0 mm 0.00 in0.0 mm 0.01 in0.3 mm
10:15 AM 49.1°F9.5°C 46.6°F8.1°C 91% 4.0 mph ESE6.4 kmh ESE 11.0 mph17.7 kmh 30.52 in1033.5 mb 0.00 in0.0 mm 0.00 in0.0 mm 0.01 in0.3 mm
10:00 AM 49.0°F9.4°C 46.5°F8.1°C 91% 5.0 mph E8.0 kmh E 11.0 mph17.7 kmh 30.52 in1033.5 mb 0.00 in0.0 mm 0.00 in0.0 mm 0.01 in0.3 mm
09:45 AM 49.2°F9.6°C 46.7°F8.2°C 91% 3.0 mph E4.8 kmh E 8.0 mph12.9 kmh 30.52 in1033.5 mb 0.00 in0.0 mm 0.00 in0.0 mm 0.01 in0.3 mm
09:30 AM 49.0°F9.4°C 46.8°F8.2°C 92% 4.0 mph E6.4 kmh E 9.0 mph14.5 kmh 30.52 in1033.5 mb 0.00 in0.0 mm 0.00 in0.0 mm 0.01 in0.3 mm
09:15 AM 48.9°F9.4°C 46.7°F8.2°C 92% 4.0 mph E6.4 kmh E 9.0 mph14.5 kmh 30.53 in1033.9 mb 0.00 in0.0 mm 0.00 in0.0 mm 0.01 in0.3 mm
09:00 AM 48.9°F9.4°C 47.0°F8.3°C 93% 3.0 mph E4.8 kmh E 8.0 mph12.9 kmh 30.53 in1033.9 mb 0.00 in0.0 mm 0.00 in0.0 mm 0.01 in0.3 mm
08:45 AM 48.9°F9.4°C 47.0°F8.3°C 93% 3.0 mph E4.8 kmh E 6.0 mph9.7 kmh 30.53 in1033.9 mb 0.00 in0.0 mm 0.00 in0.0 mm 0.01 in0.3 mm
08:30 AM 48.7°F9.3°C 47.1°F8.4°C 94% 2.0 mph E3.2 kmh E 5.0 mph8.0 kmh 30.53 in1033.9 mb 0.00 in0.0 mm 0.00 in0.0 mm 0.01 in0.3 mm
08:15 AM 48.2°F9.0°C 46.6°F8.1°C 94% 2.0 mph E3.2 kmh E 5.0 mph8.0 kmh 30.53 in1033.9 mb 0.00 in0.0 mm 0.00 in0.0 mm 0.01 in0.3 mm
08:00 AM 47.8°F8.8°C 46.4°F8.0°C 95% 2.0 mph E3.2 kmh E 6.0 mph9.7 kmh 30.52 in1033.5 mb 0.00 in0.0 mm 0.00 in0.0 mm 0.01 in0.3 mm
07:45 AM 47.6°F8.7°C 46.2°F7.9°C 95% 2.0 mph E3.2 kmh E 6.0 mph9.7 kmh 30.52 in1033.5 mb 0.00 in0.0 mm 0.00 in0.0 mm 0.01 in0.3 mm
07:30 AM 47.4°F8.6°C 46.0°F7.8°C 95% 2.0 mph E3.2 kmh E 6.0 mph9.7 kmh 30.52 in1033.5 mb 0.00 in0.0 mm 0.00 in0.0 mm 0.01 in0.3 mm
07:15 AM 47.0°F8.3°C 45.6°F7.6°C 95% 3.0 mph E4.8 kmh E 7.0 mph11.3 kmh 30.51 in1033.2 mb 0.00 in0.0 mm 0.00 in0.0 mm 0.01 in0.3 mm
07:00 AM 47.0°F8.3°C 45.6°F7.6°C 95% 3.0 mph E4.8 kmh E 7.0 mph11.3 kmh 30.51 in1033.2 mb 0.00 in0.0 mm 0.00 in0.0 mm 0.01 in0.3 mm
06:45 AM 47.2°F8.4°C 45.8°F7.7°C 95% 4.0 mph E6.4 kmh E 10.0 mph16.1 kmh 30.51 in1033.2 mb 0.00 in0.0 mm 0.00 in0.0 mm 0.01 in0.3 mm
06:30 AM 47.2°F8.4°C 45.8°F7.7°C 95% 2.0 mph E3.2 kmh E 9.0 mph14.5 kmh 30.51 in1033.2 mb 0.00 in0.0 mm 0.00 in0.0 mm 0.01 in0.3 mm
06:15 AM 47.2°F8.4°C 45.8°F7.7°C 95% 3.0 mph E4.8 kmh E 6.0 mph9.7 kmh 30.50 in1032.8 mb 0.00 in0.0 mm 0.00 in0.0 mm 0.01 in0.3 mm
06:00 AM 47.1°F8.4°C 45.7°F7.6°C 95% 2.0 mph E3.2 kmh E 5.0 mph8.0 kmh 30.50 in1032.8 mb 0.00 in0.0 mm 0.00 in0.0 mm 0.01 in0.3 mm
05:45 AM 47.1°F8.4°C 45.7°F7.6°C 95% 3.0 mph E4.8 kmh E 7.0 mph11.3 kmh 30.50 in1032.8 mb 0.00 in0.0 mm 0.00 in0.0 mm 0.01 in0.3 mm
05:30 AM 47.2°F8.4°C 45.8°F7.7°C 95% 2.0 mph E3.2 kmh E 5.0 mph8.0 kmh 30.50 in1032.8 mb 0.00 in0.0 mm 0.00 in0.0 mm 0.01 in0.3 mm
05:15 AM 47.2°F8.4°C 45.8°F7.7°C 95% 2.0 mph E3.2 kmh E 5.0 mph8.0 kmh 30.50 in1032.8 mb 0.01 in0.3 mm 0.00 in0.0 mm 0.01 in0.3 mm
05:00 AM 47.3°F8.5°C 45.9°F7.7°C 95% 2.0 mph E3.2 kmh E 5.0 mph8.0 kmh 30.50 in1032.8 mb 0.01 in0.3 mm 0.00 in0.0 mm 0.01 in0.3 mm
04:45 AM 47.3°F8.5°C 45.9°F7.7°C 95% 3.0 mph E4.8 kmh E 7.0 mph11.3 kmh 30.50 in1032.8 mb 0.01 in0.3 mm 0.00 in0.0 mm 0.01 in0.3 mm
04:30 AM 47.3°F8.5°C 45.9°F7.7°C 95% 3.0 mph E4.8 kmh E 8.0 mph12.9 kmh 30.50 in1032.8 mb 0.01 in0.3 mm 0.04 in1.0 mm 0.01 in0.3 mm
04:15 AM 47.3°F8.5°C 45.9°F7.7°C 95% 3.0 mph E4.8 kmh E 7.0 mph11.3 kmh 30.49 in1032.5 mb 0.00 in0.0 mm 0.00 in0.0 mm 0.00 in0.0 mm
04:00 AM 47.3°F8.5°C 45.9°F7.7°C 95% 4.0 mph E6.4 kmh E 9.0 mph14.5 kmh 30.49 in1032.5 mb 0.00 in0.0 mm 0.00 in0.0 mm 0.00 in0.0 mm
03:45 AM 47.3°F8.5°C 45.9°F7.7°C 95% 4.0 mph E6.4 kmh E 10.0 mph16.1 kmh 30.49 in1032.5 mb 0.00 in0.0 mm 0.00 in0.0 mm 0.00 in0.0 mm
03:30 AM 47.3°F8.5°C 46.2°F7.9°C 96% 3.0 mph E4.8 kmh E 10.0 mph16.1 kmh 30.50 in1032.8 mb 0.00 in0.0 mm 0.00 in0.0 mm 0.00 in0.0 mm
03:15 AM 47.3°F8.5°C 45.9°F7.7°C 95% 4.0 mph E6.4 kmh E 11.0 mph17.7 kmh 30.50 in1032.8 mb 0.00 in0.0 mm 0.00 in0.0 mm 0.00 in0.0 mm
03:00 AM 47.4°F8.6°C 46.0°F7.8°C 95% 3.0 mph E4.8 kmh E 11.0 mph17.7 kmh 30.51 in1033.2 mb 0.00 in0.0 mm 0.00 in0.0 mm 0.00 in0.0 mm
02:45 AM 47.4°F8.6°C 46.0°F7.8°C 95% 4.0 mph E6.4 kmh E 11.0 mph17.7 kmh 30.51 in1033.2 mb 0.00 in0.0 mm 0.00 in0.0 mm 0.00 in0.0 mm
02:30 AM 47.5°F8.6°C 46.1°F7.8°C 95% 4.0 mph E6.4 kmh E 11.0 mph17.7 kmh 30.52 in1033.5 mb 0.00 in0.0 mm 0.00 in0.0 mm 0.00 in0.0 mm
02:15 AM 47.6°F8.7°C 46.2°F7.9°C 95% 4.0 mph E6.4 kmh E 10.0 mph16.1 kmh 30.52 in1033.5 mb 0.00 in0.0 mm 0.00 in0.0 mm 0.00 in0.0 mm
02:00 AM 47.6°F8.7°C 46.5°F8.1°C 96% 4.0 mph E6.4 kmh E 13.0 mph20.9 kmh 30.52 in1033.5 mb 0.00 in0.0 mm 0.00 in0.0 mm 0.00 in0.0 mm
01:45 AM 47.6°F8.7°C 46.5°F8.1°C 96% 4.0 mph E6.4 kmh E 8.0 mph12.9 kmh 30.52 in1033.5 mb 0.00 in0.0 mm 0.00 in0.0 mm 0.00 in0.0 mm
01:30 AM 47.5°F8.6°C 46.4°F8.0°C 96% 3.0 mph E4.8 kmh E 7.0 mph11.3 kmh 30.52 in1033.5 mb 0.00 in0.0 mm 0.00 in0.0 mm 0.00 in0.0 mm
01:15 AM 47.4°F8.6°C 46.3°F7.9°C 96% 3.0 mph E4.8 kmh E 9.0 mph14.5 kmh 30.53 in1033.9 mb 0.00 in0.0 mm 0.00 in0.0 mm 0.00 in0.0 mm
01:00 AM 47.4°F8.6°C 46.3°F7.9°C 96% 3.0 mph E4.8 kmh E 8.0 mph12.9 kmh 30.52 in1033.5 mb 0.00 in0.0 mm 0.00 in0.0 mm 0.00 in0.0 mm
12:45 AM 47.4°F8.6°C 46.3°F7.9°C 96% 3.0 mph E4.8 kmh E 8.0 mph12.9 kmh 30.52 in1033.5 mb 0.00 in0.0 mm 0.00 in0.0 mm 0.00 in0.0 mm
12:30 AM 47.3°F8.5°C 46.2°F7.9°C 96% 3.0 mph E4.8 kmh E 9.0 mph14.5 kmh 30.52 in1033.5 mb 0.00 in0.0 mm 0.00 in0.0 mm 0.00 in0.0 mm
12:15 AM 47.2°F8.4°C 46.1°F7.8°C 96% 4.0 mph E6.4 kmh E 10.0 mph16.1 kmh 30.52 in1033.5 mb 0.00 in0.0 mm 0.00 in0.0 mm 0.00 in0.0 mm
12:00 AM 47.1°F8.4°C 46.0°F7.8°C 96% 4.0 mph E6.4 kmh E 10.0 mph16.1 kmh 30.53 in1033.9 mb 0.00 in0.0 mm 0.00 in0.0 mm 0.00 in0.0 mm